Ana Sayfa
METAR-TAF:

METAR-TAF

Havaalanları :

Geilenkirchen, Almanya

Enlem: 50-57-39N, Boylam: 006-2-33E, yükseklik: 90 m

Güncel hava durumu gözlemi

Rapor saat 05:50 UTC de 16 dakika önce yapıldı.
Rüzgar güneydoğudan 4 kt
Sıcaklık 0°C
Nem 100%
Basınç 1018 hPa
Görüş mesafesi 10 km veya daha fazla
2900 ft yükseklikte parçalı çok bulutlu

METAR: ETNG 200550Z 14004KT 9999 BKN029 00/M00 Q1018

Saat: 07:06 (06:06 UTC)

Tahmin

Rapor saat 05:00 UTC de 1 saat ve 6 dakika önce yapıldı.
Ayın 20'si saat 06 UTC'den ayın 20'si saat 21 UTC'ye kadar geçerli Tahmin
Rüzgar doğu/güneydoğudan 5 kt
Görüş mesafesi 10 km veya daha fazla
1500 m altında bulut yok ve kümülonimbus yok
Olasılık 30%
ayın 20'si saat 06 UTC'den ayın 20'si saat 09 UTC'ye kadar
Görüş mesafesi: 1200 m
sis kütleleri

TAF: ETNG 200500Z 2006/2021 11005KT CAVOK PROB30 2006/2009 1200 BCFG

4.000'den fazla havaalanı için hava durumu gözlemleri ve tahminleri (METAR ve TAF raporları).

Kullanılabilir istasyonlar harita üzerinde sarı ve kırmızı noktalarla gösterilir.

İstasyonun adını görmek için fareyi noktanın üzerinde gezdirin.

Sonrasında hava gözlem ve tahminlerini görmek için tıklayın.

Haritayı değiştirmek için: yaklaştırmak için siyah artı işaretli yeşil düğmeye ve uzaklaştırmak için de eksi işaretli düğmeye hızla tıklayın; bitişik haritalar için yeşil okları kullanın.


METAR-TAF: